sensor_id;sensor_type;location;lat;lon;timestamp;P1;durP1;ratioP1;P2;durP2;ratioP2
55220;SDS011;41089;51.448;6.604;2022-10-26T00:00:12;8.73;;;4.05;;
55220;SDS011;41089;51.448;6.604;2022-10-26T00:12:17;8.35;;;3.50;;
55220;SDS011;41089;51.448;6.604;2022-10-26T00:18:18;8.97;;;3.17;;
55220;SDS011;41089;51.448;6.604;2022-10-26T00:24:18;8.73;;;3.30;;
55220;SDS011;41089;51.448;6.604;2022-10-26T00:30:19;10.13;;;3.20;;
55220;SDS011;41089;51.448;6.604;2022-10-26T00:36:19;8.60;;;3.20;;
55220;SDS011;41089;51.448;6.604;2022-10-26T00:42:22;5.72;;;2.83;;
55220;SDS011;41089;51.448;6.604;2022-10-26T00:48:32;6.15;;;2.60;;
55220;SDS011;41089;51.448;6.604;2022-10-26T00:54:34;4.60;;;2.92;;
55220;SDS011;41089;51.448;6.604;2022-10-26T01:00:35;6.40;;;2.30;;
55220;SDS011;41089;51.448;6.604;2022-10-26T01:06:35;5.93;;;2.20;;
55220;SDS011;41089;51.448;6.604;2022-10-26T01:12:37;4.68;;;2.38;;
55220;SDS011;41089;51.448;6.604;2022-10-26T01:18:39;8.47;;;2.77;;
55220;SDS011;41089;51.448;6.604;2022-10-26T01:31:09;6.45;;;1.90;;
55220;SDS011;41089;51.448;6.604;2022-10-26T01:37:11;3.90;;;1.88;;
55220;SDS011;41089;51.448;6.604;2022-10-26T01:43:15;6.40;;;2.28;;
55220;SDS011;41089;51.448;6.604;2022-10-26T01:49:17;9.70;;;2.08;;
55220;SDS011;41089;51.448;6.604;2022-10-26T02:14:21;5.20;;;2.45;;
55220;SDS011;41089;51.448;6.604;2022-10-26T02:20:50;2.97;;;2.55;;
55220;SDS011;41089;51.448;6.604;2022-10-26T02:26:53;6.63;;;2.40;;
55220;SDS011;41089;51.448;6.604;2022-10-26T02:32:55;6.90;;;2.10;;
55220;SDS011;41089;51.448;6.604;2022-10-26T02:38:57;7.13;;;2.17;;
55220;SDS011;41089;51.448;6.604;2022-10-26T02:44:59;6.05;;;2.25;;
55220;SDS011;41089;51.448;6.604;2022-10-26T02:51:10;8.02;;;2.75;;
55220;SDS011;41089;51.448;6.604;2022-10-26T03:03:14;6.80;;;2.20;;
55220;SDS011;41089;51.448;6.604;2022-10-26T03:09:14;5.28;;;1.70;;
55220;SDS011;41089;51.448;6.604;2022-10-26T03:15:15;4.75;;;1.50;;
55220;SDS011;41089;51.448;6.604;2022-10-26T03:21:16;6.47;;;2.05;;
55220;SDS011;41089;51.448;6.604;2022-10-26T03:27:16;12.07;;;2.20;;
55220;SDS011;41089;51.448;6.604;2022-10-26T03:33:17;6.28;;;1.85;;
55220;SDS011;41089;51.448;6.604;2022-10-26T03:39:17;7.28;;;2.03;;
55220;SDS011;41089;51.448;6.604;2022-10-26T03:45:17;3.97;;;1.50;;
55220;SDS011;41089;51.448;6.604;2022-10-26T03:51:19;5.03;;;1.50;;
55220;SDS011;41089;51.448;6.604;2022-10-26T03:57:19;6.47;;;1.88;;
55220;SDS011;41089;51.448;6.604;2022-10-26T04:03:20;5.40;;;1.73;;
55220;SDS011;41089;51.448;6.604;2022-10-26T04:09:20;4.28;;;1.73;;
55220;SDS011;41089;51.448;6.604;2022-10-26T04:15:23;5.53;;;1.80;;
55220;SDS011;41089;51.448;6.604;2022-10-26T04:21:24;4.30;;;1.48;;
55220;SDS011;41089;51.448;6.604;2022-10-26T04:27:24;8.07;;;1.70;;
55220;SDS011;41089;51.448;6.604;2022-10-26T04:33:25;6.63;;;1.90;;
55220;SDS011;41089;51.448;6.604;2022-10-26T04:39:25;8.53;;;2.10;;
55220;SDS011;41089;51.448;6.604;2022-10-26T04:45:26;4.87;;;1.53;;
55220;SDS011;41089;51.448;6.604;2022-10-26T04:51:32;6.80;;;1.73;;
55220;SDS011;41089;51.448;6.604;2022-10-26T04:57:33;7.22;;;2.60;;
55220;SDS011;41089;51.448;6.604;2022-10-26T05:03:34;4.20;;;1.83;;
55220;SDS011;41089;51.448;6.604;2022-10-26T05:09:34;10.93;;;2.55;;
55220;SDS011;41089;51.448;6.604;2022-10-26T05:15:35;7.55;;;1.83;;
55220;SDS011;41089;51.448;6.604;2022-10-26T05:21:35;4.13;;;1.87;;
55220;SDS011;41089;51.448;6.604;2022-10-26T05:27:36;6.10;;;2.10;;
55220;SDS011;41089;51.448;6.604;2022-10-26T05:33:36;6.13;;;1.95;;
55220;SDS011;41089;51.448;6.604;2022-10-26T05:39:37;6.10;;;1.80;;
55220;SDS011;41089;51.448;6.604;2022-10-26T05:45:38;3.53;;;1.90;;
55220;SDS011;41089;51.448;6.604;2022-10-26T05:51:38;3.00;;;2.13;;
55220;SDS011;41089;51.448;6.604;2022-10-26T05:57:40;6.45;;;2.20;;
55220;SDS011;41089;51.448;6.604;2022-10-26T06:10:27;5.53;;;2.97;;
55220;SDS011;41089;51.448;6.604;2022-10-26T06:16:31;7.57;;;3.58;;
55220;SDS011;41089;51.448;6.604;2022-10-26T06:29:13;8.23;;;3.15;;
55220;SDS011;41089;51.448;6.604;2022-10-26T06:35:43;7.60;;;3.08;;
55220;SDS011;41089;51.448;6.604;2022-10-26T06:41:51;8.73;;;3.75;;
55220;SDS011;41089;51.448;6.604;2022-10-26T06:47:56;7.28;;;3.42;;
55220;SDS011;41089;51.448;6.604;2022-10-26T07:00:22;6.63;;;3.10;;
55220;SDS011;41089;51.448;6.604;2022-10-26T07:06:24;7.65;;;3.00;;
55220;SDS011;41089;51.448;6.604;2022-10-26T07:12:24;8.17;;;2.70;;
55220;SDS011;41089;51.448;6.604;2022-10-26T07:18:25;7.73;;;2.93;;
55220;SDS011;41089;51.448;6.604;2022-10-26T07:24:26;7.97;;;3.37;;
55220;SDS011;41089;51.448;6.604;2022-10-26T07:30:27;6.90;;;2.53;;
55220;SDS011;41089;51.448;6.604;2022-10-26T07:36:28;6.00;;;2.03;;
55220;SDS011;41089;51.448;6.604;2022-10-26T07:42:29;5.07;;;2.28;;
55220;SDS011;41089;51.448;6.604;2022-10-26T07:48:30;4.88;;;2.22;;
55220;SDS011;41089;51.448;6.604;2022-10-26T07:54:30;7.80;;;2.25;;
55220;SDS011;41089;51.448;6.604;2022-10-26T08:06:54;8.02;;;2.45;;
55220;SDS011;41089;51.448;6.604;2022-10-26T08:12:54;5.33;;;2.30;;
55220;SDS011;41089;51.448;6.604;2022-10-26T08:18:54;8.50;;;2.33;;
55220;SDS011;41089;51.448;6.604;2022-10-26T08:24:55;9.02;;;2.50;;
55220;SDS011;41089;51.448;6.604;2022-10-26T08:30:55;4.93;;;2.20;;
55220;SDS011;41089;51.448;6.604;2022-10-26T08:36:56;4.07;;;2.17;;
55220;SDS011;41089;51.448;6.604;2022-10-26T08:42:59;5.15;;;2.03;;
55220;SDS011;41089;51.448;6.604;2022-10-26T08:49:25;6.57;;;2.08;;
55220;SDS011;41089;51.448;6.604;2022-10-26T08:55:25;5.07;;;2.00;;
55220;SDS011;41089;51.448;6.604;2022-10-26T09:01:31;6.97;;;2.22;;
55220;SDS011;41089;51.448;6.604;2022-10-26T09:07:45;4.70;;;2.40;;
55220;SDS011;41089;51.448;6.604;2022-10-26T09:14:12;5.65;;;2.00;;
55220;SDS011;41089;51.448;6.604;2022-10-26T09:26:51;5.68;;;1.98;;
55220;SDS011;41089;51.448;6.604;2022-10-26T09:33:01;6.72;;;2.25;;
55220;SDS011;41089;51.448;6.604;2022-10-26T09:39:47;9.70;;;2.50;;
55220;SDS011;41089;51.448;6.604;2022-10-26T09:45:45;5.00;;;2.67;;
55220;SDS011;41089;51.448;6.604;2022-10-26T09:51:48;5.95;;;2.35;;
55220;SDS011;41089;51.448;6.604;2022-10-26T09:57:55;4.30;;;2.00;;
55220;SDS011;41089;51.448;6.604;2022-10-26T10:04:19;6.13;;;2.05;;
55220;SDS011;41089;51.448;6.604;2022-10-26T10:10:25;4.65;;;2.38;;
55220;SDS011;41089;51.448;6.604;2022-10-26T10:16:25;5.73;;;2.17;;
55220;SDS011;41089;51.448;6.604;2022-10-26T10:22:26;5.78;;;2.33;;
55220;SDS011;41089;51.448;6.604;2022-10-26T10:28:26;4.50;;;2.33;;
55220;SDS011;41089;51.448;6.604;2022-10-26T10:34:31;8.75;;;2.47;;
55220;SDS011;41089;51.448;6.604;2022-10-26T10:40:32;8.98;;;2.78;;
55220;SDS011;41089;51.448;6.604;2022-10-26T10:46:33;7.78;;;3.08;;
55220;SDS011;41089;51.448;6.604;2022-10-26T10:52:34;6.88;;;2.28;;
55220;SDS011;41089;51.448;6.604;2022-10-26T11:17:41;7.00;;;2.60;;
55220;SDS011;41089;51.448;6.604;2022-10-26T11:23:50;8.20;;;2.30;;
55220;SDS011;41089;51.448;6.604;2022-10-26T11:29:56;5.55;;;2.63;;
55220;SDS011;41089;51.448;6.604;2022-10-26T11:36:05;5.57;;;2.28;;
55220;SDS011;41089;51.448;6.604;2022-10-26T11:48:22;5.82;;;2.40;;
55220;SDS011;41089;51.448;6.604;2022-10-26T12:00:36;3.33;;;1.65;;
55220;SDS011;41089;51.448;6.604;2022-10-26T12:06:43;4.43;;;2.08;;
55220;SDS011;41089;51.448;6.604;2022-10-26T12:12:50;4.53;;;1.95;;
55220;SDS011;41089;51.448;6.604;2022-10-26T12:25:22;2.70;;;1.50;;
55220;SDS011;41089;51.448;6.604;2022-10-26T12:37:35;2.70;;;1.65;;
55220;SDS011;41089;51.448;6.604;2022-10-26T12:43:37;3.38;;;1.80;;
55220;SDS011;41089;51.448;6.604;2022-10-26T12:56:04;1.38;;;1.20;;
55220;SDS011;41089;51.448;6.604;2022-10-26T13:08:28;3.20;;;1.50;;
55220;SDS011;41089;51.448;6.604;2022-10-26T13:14:39;2.60;;;1.40;;
55220;SDS011;41089;51.448;6.604;2022-10-26T13:33:09;4.30;;;1.73;;
55220;SDS011;41089;51.448;6.604;2022-10-26T13:39:16;4.03;;;1.40;;
55220;SDS011;41089;51.448;6.604;2022-10-26T13:45:19;2.58;;;1.90;;
55220;SDS011;41089;51.448;6.604;2022-10-26T13:51:23;3.15;;;1.38;;
55220;SDS011;41089;51.448;6.604;2022-10-26T13:57:31;3.72;;;1.40;;
55220;SDS011;41089;51.448;6.604;2022-10-26T14:03:35;5.20;;;1.42;;
55220;SDS011;41089;51.448;6.604;2022-10-26T14:09:36;3.72;;;1.48;;
55220;SDS011;41089;51.448;6.604;2022-10-26T14:15:36;5.32;;;1.20;;
55220;SDS011;41089;51.448;6.604;2022-10-26T14:21:38;2.92;;;1.35;;
55220;SDS011;41089;51.448;6.604;2022-10-26T14:27:41;1.98;;;1.42;;
55220;SDS011;41089;51.448;6.604;2022-10-26T14:33:42;5.18;;;1.67;;
55220;SDS011;41089;51.448;6.604;2022-10-26T14:39:43;7.67;;;1.50;;
55220;SDS011;41089;51.448;6.604;2022-10-26T14:45:46;4.20;;;1.33;;
55220;SDS011;41089;51.448;6.604;2022-10-26T14:51:49;2.78;;;1.38;;
55220;SDS011;41089;51.448;6.604;2022-10-26T14:58:07;2.92;;;1.83;;
55220;SDS011;41089;51.448;6.604;2022-10-26T15:16:38;4.88;;;1.50;;
55220;SDS011;41089;51.448;6.604;2022-10-26T15:22:39;5.07;;;1.85;;
55220;SDS011;41089;51.448;6.604;2022-10-26T15:28:42;5.57;;;1.83;;
55220;SDS011;41089;51.448;6.604;2022-10-26T15:34:46;3.65;;;1.70;;
55220;SDS011;41089;51.448;6.604;2022-10-26T15:40:48;3.80;;;1.80;;
55220;SDS011;41089;51.448;6.604;2022-10-26T15:46:48;8.02;;;2.28;;
55220;SDS011;41089;51.448;6.604;2022-10-26T15:52:49;4.68;;;1.48;;
55220;SDS011;41089;51.448;6.604;2022-10-26T15:59:22;4.88;;;1.25;;
55220;SDS011;41089;51.448;6.604;2022-10-26T16:05:23;4.32;;;1.35;;
55220;SDS011;41089;51.448;6.604;2022-10-26T16:11:23;3.38;;;1.50;;
55220;SDS011;41089;51.448;6.604;2022-10-26T16:17:24;6.90;;;1.70;;
55220;SDS011;41089;51.448;6.604;2022-10-26T16:23:24;4.63;;;1.80;;
55220;SDS011;41089;51.448;6.604;2022-10-26T16:29:26;8.00;;;1.98;;
55220;SDS011;41089;51.448;6.604;2022-10-26T16:35:27;6.05;;;1.65;;
55220;SDS011;41089;51.448;6.604;2022-10-26T16:41:27;6.82;;;2.15;;
55220;SDS011;41089;51.448;6.604;2022-10-26T16:47:28;6.45;;;1.92;;
55220;SDS011;41089;51.448;6.604;2022-10-26T16:53:28;3.03;;;1.55;;
55220;SDS011;41089;51.448;6.604;2022-10-26T16:59:29;6.40;;;1.70;;
55220;SDS011;41089;51.448;6.604;2022-10-26T17:05:30;4.05;;;2.63;;
55220;SDS011;41089;51.448;6.604;2022-10-26T17:11:30;7.00;;;2.15;;
55220;SDS011;41089;51.448;6.604;2022-10-26T17:17:31;11.30;;;2.22;;
55220;SDS011;41089;51.448;6.604;2022-10-26T17:23:31;4.35;;;1.52;;
55220;SDS011;41089;51.448;6.604;2022-10-26T17:29:32;9.07;;;1.90;;
55220;SDS011;41089;51.448;6.604;2022-10-26T17:35:33;5.00;;;1.93;;
55220;SDS011;41089;51.448;6.604;2022-10-26T17:41:33;6.40;;;1.50;;
55220;SDS011;41089;51.448;6.604;2022-10-26T17:47:34;6.53;;;2.10;;
55220;SDS011;41089;51.448;6.604;2022-10-26T17:53:36;2.85;;;1.70;;
55220;SDS011;41089;51.448;6.604;2022-10-26T17:59:39;3.90;;;1.63;;
55220;SDS011;41089;51.448;6.604;2022-10-26T18:05:57;8.15;;;2.53;;
55220;SDS011;41089;51.448;6.604;2022-10-26T18:11:58;9.73;;;2.95;;
55220;SDS011;41089;51.448;6.604;2022-10-26T18:17:59;5.68;;;2.08;;
55220;SDS011;41089;51.448;6.604;2022-10-26T18:24:00;9.30;;;2.30;;
55220;SDS011;41089;51.448;6.604;2022-10-26T18:30:00;4.60;;;2.07;;
55220;SDS011;41089;51.448;6.604;2022-10-26T18:36:05;7.90;;;2.67;;
55220;SDS011;41089;51.448;6.604;2022-10-26T18:42:12;6.20;;;2.63;;
55220;SDS011;41089;51.448;6.604;2022-10-26T18:48:20;15.95;;;2.58;;
55220;SDS011;41089;51.448;6.604;2022-10-26T18:54:25;4.23;;;2.00;;
55220;SDS011;41089;51.448;6.604;2022-10-26T19:06:54;9.18;;;3.03;;
55220;SDS011;41089;51.448;6.604;2022-10-26T19:12:56;9.25;;;3.15;;
55220;SDS011;41089;51.448;6.604;2022-10-26T19:18:58;5.20;;;2.72;;
55220;SDS011;41089;51.448;6.604;2022-10-26T19:25:00;13.88;;;3.88;;
55220;SDS011;41089;51.448;6.604;2022-10-26T19:31:04;14.57;;;3.08;;
55220;SDS011;41089;51.448;6.604;2022-10-26T19:37:06;12.68;;;2.85;;
55220;SDS011;41089;51.448;6.604;2022-10-26T19:43:08;7.82;;;3.42;;
55220;SDS011;41089;51.448;6.604;2022-10-26T19:49:10;7.80;;;2.80;;
55220;SDS011;41089;51.448;6.604;2022-10-26T19:55:11;6.55;;;3.63;;
55220;SDS011;41089;51.448;6.604;2022-10-26T20:01:12;7.10;;;3.30;;
55220;SDS011;41089;51.448;6.604;2022-10-26T20:07:14;6.15;;;3.05;;
55220;SDS011;41089;51.448;6.604;2022-10-26T20:13:14;6.03;;;3.70;;
55220;SDS011;41089;51.448;6.604;2022-10-26T20:19:15;4.72;;;3.33;;
55220;SDS011;41089;51.448;6.604;2022-10-26T20:25:16;7.80;;;3.60;;
55220;SDS011;41089;51.448;6.604;2022-10-26T20:31:17;6.45;;;3.00;;
55220;SDS011;41089;51.448;6.604;2022-10-26T20:37:18;11.20;;;3.97;;
55220;SDS011;41089;51.448;6.604;2022-10-26T20:43:19;6.78;;;3.10;;
55220;SDS011;41089;51.448;6.604;2022-10-26T20:49:21;6.15;;;3.30;;
55220;SDS011;41089;51.448;6.604;2022-10-26T21:01:55;8.18;;;3.15;;
55220;SDS011;41089;51.448;6.604;2022-10-26T21:07:56;5.55;;;2.90;;
55220;SDS011;41089;51.448;6.604;2022-10-26T21:13:58;5.55;;;3.25;;
55220;SDS011;41089;51.448;6.604;2022-10-26T21:20:04;6.63;;;3.28;;
55220;SDS011;41089;51.448;6.604;2022-10-26T21:26:06;8.55;;;2.83;;
55220;SDS011;41089;51.448;6.604;2022-10-26T21:32:06;9.55;;;2.80;;
55220;SDS011;41089;51.448;6.604;2022-10-26T21:38:07;9.77;;;2.60;;
55220;SDS011;41089;51.448;6.604;2022-10-26T21:44:08;9.45;;;3.67;;
55220;SDS011;41089;51.448;6.604;2022-10-26T21:50:09;9.32;;;3.13;;
55220;SDS011;41089;51.448;6.604;2022-10-26T21:56:11;11.52;;;3.10;;
55220;SDS011;41089;51.448;6.604;2022-10-26T22:02:16;4.30;;;2.78;;
55220;SDS011;41089;51.448;6.604;2022-10-26T22:08:17;5.80;;;2.83;;
55220;SDS011;41089;51.448;6.604;2022-10-26T22:14:17;7.35;;;3.22;;
55220;SDS011;41089;51.448;6.604;2022-10-26T22:20:18;12.18;;;3.28;;
55220;SDS011;41089;51.448;6.604;2022-10-26T22:26:20;8.47;;;2.80;;
55220;SDS011;41089;51.448;6.604;2022-10-26T22:32:22;7.55;;;4.00;;
55220;SDS011;41089;51.448;6.604;2022-10-26T22:38:22;8.90;;;3.95;;
55220;SDS011;41089;51.448;6.604;2022-10-26T22:44:24;6.50;;;3.78;;
55220;SDS011;41089;51.448;6.604;2022-10-26T22:50:24;10.52;;;3.50;;
55220;SDS011;41089;51.448;6.604;2022-10-26T22:56:25;9.67;;;3.83;;
55220;SDS011;41089;51.448;6.604;2022-10-26T23:02:26;11.77;;;3.50;;
55220;SDS011;41089;51.448;6.604;2022-10-26T23:08:26;8.90;;;4.20;;
55220;SDS011;41089;51.448;6.604;2022-10-26T23:14:27;14.77;;;4.47;;
55220;SDS011;41089;51.448;6.604;2022-10-26T23:20:27;5.60;;;3.50;;
55220;SDS011;41089;51.448;6.604;2022-10-26T23:26:30;13.32;;;4.22;;
55220;SDS011;41089;51.448;6.604;2022-10-26T23:32:32;5.70;;;3.70;;
55220;SDS011;41089;51.448;6.604;2022-10-26T23:38:32;11.68;;;4.70;;
55220;SDS011;41089;51.448;6.604;2022-10-26T23:44:33;12.30;;;4.13;;
55220;SDS011;41089;51.448;6.604;2022-10-26T23:50:33;7.65;;;3.60;;
55220;SDS011;41089;51.448;6.604;2022-10-26T23:56:34;14.67;;;3.93;;
